Time;durP1;ratioP1;P1;durP2;ratioP2;P2;SDS_P1;SDS_P2;PMS_P1;PMS_P2;Temp;Humidity;BMP_temperature;BMP_pressure;BME280_temperature;BME280_humidity;BME280_pressure;Samples;Min_cycle;Max_cycle;Signal;HPM_P1;HPM_P2
2023/12/05 00:01:36;;;;;;;9.32;6.38;;;0.10;99.90;;;;;;5089987;28;20602;-74
2023/12/05 00:04:03;;;;;;;10.02;5.78;;;0.10;99.90;;;;;;5088867;28;20476;-74
2023/12/05 00:06:29;;;;;;;9.75;5.10;;;0.20;99.90;;;;;;5090849;28;20061;-74
2023/12/05 00:08:54;;;;;;;9.30;5.72;;;0.20;99.90;;;;;;5088411;28;20028;-74
2023/12/05 00:11:21;;;;;;;9.15;5.25;;;0.10;99.90;;;;;;5085776;28;20062;-74
2023/12/05 00:13:46;;;;;;;10.30;5.70;;;0.10;99.90;;;;;;5091961;28;20388;-74
2023/12/05 00:16:12;;;;;;;6.72;4.68;;;0.10;99.90;;;;;;5090955;28;20036;-74
2023/12/05 00:18:38;;;;;;;12.35;5.32;;;0.10;99.90;;;;;;5093871;28;20035;-74
2023/12/05 00:21:05;;;;;;;9.52;4.57;;;0.20;99.90;;;;;;5094440;28;20388;-74
2023/12/05 00:23:31;;;;;;;10.15;5.53;;;0.10;99.90;;;;;;5091635;28;20020;-73
2023/12/05 00:25:56;;;;;;;9.30;5.10;;;0.10;99.90;;;;;;5093248;28;20108;-73
2023/12/05 00:28:22;;;;;;;7.72;4.70;;;0.20;99.90;;;;;;5095841;28;20034;-73
2023/12/05 00:30:48;;;;;;;8.63;4.50;;;0.10;99.90;;;;;;5092910;28;20273;-73
2023/12/05 00:33:13;;;;;;;6.35;4.07;;;0.20;99.90;;;;;;5092750;28;20077;-73
2023/12/05 00:35:39;;;;;;;8.77;5.13;;;0.00;99.90;;;;;;5093046;28;20093;-73
2023/12/05 00:38:05;;;;;;;7.07;4.72;;;0.00;99.90;;;;;;5092804;28;20985;-73
2023/12/05 00:40:31;;;;;;;7.75;4.10;;;0.00;99.90;;;;;;5094011;28;20043;-73
2023/12/05 00:42:56;;;;;;;6.63;3.90;;;0.00;99.90;;;;;;5092296;28;20039;-73
2023/12/05 00:45:22;;;;;;;7.72;4.10;;;0.00;99.90;;;;;;5092538;28;20108;-73
2023/12/05 00:47:49;;;;;;;7.72;4.40;;;0.00;99.90;;;;;;5093550;28;20036;-73
2023/12/05 00:50:15;;;;;;;7.93;4.35;;;0.10;99.90;;;;;;5094595;28;20036;-73
2023/12/05 00:52:41;;;;;;;8.15;4.38;;;0.20;99.90;;;;;;5093711;27;20565;-73
2023/12/05 00:55:06;;;;;;;7.72;4.70;;;0.00;99.90;;;;;;5093428;28;20381;-73
2023/12/05 00:57:32;;;;;;;7.85;4.45;;;0.00;99.90;;;;;;5094927;28;20039;-73
2023/12/05 00:59:58;;;;;;;8.05;3.60;;;0.00;99.90;;;;;;5092141;28;20031;-73
2023/12/05 01:02:23;;;;;;;7.40;4.07;;;0.00;99.90;;;;;;5093187;28;20089;-73
2023/12/05 01:04:49;;;;;;;6.57;3.90;;;0.00;99.90;;;;;;5095242;28;20073;-73
2023/12/05 01:07:15;;;;;;;7.50;4.13;;;0.00;99.90;;;;;;5091662;28;20038;-73
2023/12/05 01:09:41;;;;;;;10.25;4.70;;;0.10;99.90;;;;;;5094315;28;20063;-73
2023/12/05 01:12:09;;;;;;;8.50;4.55;;;0.10;99.90;;;;;;5095077;28;20108;-73
2023/12/05 01:14:35;;;;;;;7.88;4.03;;;0.10;99.90;;;;;;5092762;28;20047;-73
2023/12/05 01:17:01;;;;;;;6.85;3.40;;;0.10;99.90;;;;;;5092916;28;20050;-73
2023/12/05 01:19:26;;;;;;;6.35;3.63;;;0.20;99.90;;;;;;5093627;28;20057;-73
2023/12/05 01:21:52;;;;;;;7.50;4.18;;;0.30;99.90;;;;;;5092813;28;20069;-73
2023/12/05 01:24:18;;;;;;;6.88;3.88;;;0.30;99.90;;;;;;5093404;28;20043;-73
2023/12/05 01:26:43;;;;;;;7.90;4.80;;;0.20;99.90;;;;;;5095887;28;20034;-73
2023/12/05 01:29:09;;;;;;;7.97;4.88;;;0.00;99.90;;;;;;5092855;28;20392;-73
2023/12/05 01:31:35;;;;;;;7.55;4.95;;;-0.10;99.90;;;;;;5092904;28;20036;-73
2023/12/05 01:34:00;;;;;;;8.32;5.20;;;-0.10;99.90;;;;;;5093398;28;20108;-73
2023/12/05 01:36:26;;;;;;;10.15;4.88;;;-0.10;99.90;;;;;;5090221;28;21290;-73
2023/12/05 01:38:52;;;;;;;10.05;4.70;;;-0.10;99.90;;;;;;5092496;28;20026;-73
2023/12/05 01:41:18;;;;;;;7.50;4.82;;;0.00;99.90;;;;;;5091187;28;20069;-73
2023/12/05 01:43:44;;;;;;;8.10;5.03;;;0.10;99.90;;;;;;5090899;28;20035;-73
2023/12/05 01:46:11;;;;;;;8.05;4.88;;;0.10;99.90;;;;;;5091438;28;20088;-73
2023/12/05 01:48:37;;;;;;;7.57;4.82;;;0.00;99.90;;;;;;5093935;28;20094;-73
2023/12/05 01:51:05;;;;;;;8.10;5.03;;;0.00;99.90;;;;;;5091189;28;20035;-73
2023/12/05 01:53:33;;;;;;;9.52;5.97;;;0.00;99.90;;;;;;5094294;28;20519;-73
2023/12/05 01:55:59;;;;;;;7.75;4.95;;;-0.10;99.90;;;;;;5093703;28;20020;-73
2023/12/05 01:58:25;;;;;;;7.75;4.90;;;0.10;99.90;;;;;;5092584;28;20544;-72
2023/12/05 02:00:51;;;;;;;8.27;4.88;;;0.10;99.90;;;;;;5093991;28;20046;-73
2023/12/05 02:03:17;;;;;;;9.45;4.63;;;0.00;99.90;;;;;;5093098;28;20044;-73
2023/12/05 02:05:43;;;;;;;8.73;4.25;;;0.00;99.90;;;;;;5092319;28;20074;-73
2023/12/05 02:08:11;;;;;;;9.30;4.57;;;0.20;99.90;;;;;;5092384;28;20157;-73
2023/12/05 02:10:37;;;;;;;8.15;5.20;;;0.20;99.90;;;;;;5093770;28;20078;-73
2023/12/05 02:13:03;;;;;;;7.07;4.53;;;0.10;99.90;;;;;;5092877;28;20552;-73
2023/12/05 02:15:29;;;;;;;7.10;4.13;;;0.10;99.90;;;;;;5093108;28;20043;-73
2023/12/05 02:18:23;;;;;;;8.10;4.40;;;0.10;99.90;;;;;;5094241;28;20557;-73
2023/12/05 02:20:49;;;;;;;9.85;4.97;;;0.20;99.90;;;;;;5091713;28;20607;-73
2023/12/05 02:23:42;;;;;;;8.43;4.82;;;0.30;99.90;;;;;;5092952;28;20056;-73
2023/12/05 02:26:34;;;;;;;12.70;4.97;;;0.20;99.90;;;;;;5095297;28;20097;-73
2023/12/05 02:29:00;;;;;;;10.75;4.80;;;0.30;99.90;;;;;;5094733;28;20189;-73
2023/12/05 02:31:25;;;;;;;9.73;5.43;;;0.20;99.90;;;;;;5095194;28;20110;-72
2023/12/05 02:33:51;;;;;;;12.65;5.25;;;0.20;99.90;;;;;;5095114;28;20058;-73
2023/12/05 02:36:28;;;;;;;9.10;5.35;;;0.10;99.90;;;;;;5096870;28;20108;-73
2023/12/05 02:39:21;;;;;;;9.48;5.45;;;0.00;99.90;;;;;;5095118;28;20039;-72
2023/12/05 02:41:53;;;;;;;8.50;4.65;;;0.00;99.90;;;;;;5096092;28;20028;-72
2023/12/05 02:44:22;;;;;;;7.38;4.38;;;0.10;99.90;;;;;;5094316;28;20426;-73
2023/12/05 02:46:49;;;;;;;7.93;4.53;;;0.20;99.90;;;;;;5095253;28;20043;-73
2023/12/05 02:49:15;;;;;;;13.10;5.57;;;0.20;99.90;;;;;;5095168;28;20476;-73
2023/12/05 02:51:42;;;;;;;9.70;5.45;;;0.30;99.90;;;;;;5098088;28;20097;-72
2023/12/05 02:54:08;;;;;;;7.38;5.00;;;0.30;99.90;;;;;;5093729;28;20039;-72
2023/12/05 02:56:36;;;;;;;10.48;5.13;;;0.30;99.90;;;;;;5095075;28;20035;-73
2023/12/05 02:59:03;;;;;;;8.05;4.82;;;0.30;99.90;;;;;;5096341;28;20038;-73
2023/12/05 03:01:29;;;;;;;8.75;4.90;;;0.40;99.90;;;;;;5095937;28;20031;-72
2023/12/05 03:03:54;;;;;;;9.00;5.10;;;0.40;99.90;;;;;;5094830;28;20044;-72
2023/12/05 03:06:20;;;;;;;8.70;5.53;;;0.30;99.90;;;;;;5094472;28;20504;-73
2023/12/05 03:08:46;;;;;;;8.65;4.85;;;0.20;99.90;;;;;;5094398;28;20038;-72
2023/12/05 03:11:12;;;;;;;7.85;4.15;;;0.40;99.90;;;;;;5095970;28;20088;-72
2023/12/05 03:13:39;;;;;;;6.93;4.35;;;0.40;99.90;;;;;;5095228;28;20046;-73
2023/12/05 03:16:06;;;;;;;9.70;4.60;;;0.40;99.90;;;;;;5095402;28;20753;-72
2023/12/05 03:18:31;;;;;;;7.80;4.75;;;0.40;99.90;;;;;;5096572;28;20385;-73
2023/12/05 03:20:57;;;;;;;8.27;5.75;;;0.40;99.90;;;;;;5095571;28;20031;-72
2023/12/05 03:23:22;;;;;;;7.13;4.60;;;0.50;99.90;;;;;;5096873;28;20557;-73
2023/12/05 03:25:48;;;;;;;8.18;5.07;;;0.50;99.90;;;;;;5093678;28;20481;-72
2023/12/05 03:28:14;;;;;;;6.95;3.88;;;0.50;99.90;;;;;;5095326;28;20081;-73
2023/12/05 03:30:39;;;;;;;8.13;4.60;;;0.60;99.90;;;;;;5096323;28;20032;-72
2023/12/05 03:33:05;;;;;;;7.78;4.32;;;0.50;99.90;;;;;;5094411;28;20039;-72
2023/12/05 03:35:31;;;;;;;9.77;4.50;;;0.40;99.90;;;;;;5094092;28;20132;-73
2023/12/05 03:37:56;;;;;;;7.13;4.43;;;0.50;99.90;;;;;;5094809;28;20435;-73
2023/12/05 03:40:22;;;;;;;7.25;4.40;;;0.50;99.90;;;;;;5094187;28;20039;-72
2023/12/05 03:42:47;;;;;;;8.57;4.90;;;0.40;99.90;;;;;;5095901;28;20039;-73
2023/12/05 03:45:13;;;;;;;9.15;4.97;;;0.30;99.90;;;;;;5092203;28;20074;-73
2023/12/05 03:47:39;;;;;;;8.38;5.03;;;0.30;99.90;;;;;;5090601;28;20050;-73
2023/12/05 03:50:05;;;;;;;9.43;5.13;;;0.40;99.90;;;;;;5094399;28;20053;-73
2023/12/05 03:52:30;;;;;;;6.45;3.78;;;0.40;99.90;;;;;;5095083;28;20077;-73
2023/12/05 03:54:56;;;;;;;11.75;4.43;;;0.40;99.90;;;;;;5091973;28;20485;-73
2023/12/05 03:57:22;;;;;;;7.72;5.07;;;0.40;99.90;;;;;;5094045;28;20020;-73
2023/12/05 03:59:47;;;;;;;6.57;4.28;;;0.40;99.90;;;;;;5095388;28;20019;-73
2023/12/05 04:02:13;;;;;;;7.70;4.80;;;0.40;99.90;;;;;;5092848;28;20134;-72
2023/12/05 04:04:39;;;;;;;8.63;4.20;;;0.40;99.90;;;;;;5087569;28;20526;-72
2023/12/05 04:07:05;;;;;;;9.23;4.72;;;0.40;99.90;;;;;;5089787;28;20469;-72
2023/12/05 04:09:31;;;;;;;7.47;4.78;;;0.40;99.90;;;;;;5088677;28;20562;-72
2023/12/05 04:11:57;;;;;;;10.05;5.68;;;0.40;99.90;;;;;;5088749;28;20146;-72
2023/12/05 04:14:24;;;;;;;8.52;5.30;;;0.40;99.90;;;;;;5089204;28;20128;-72
2023/12/05 04:16:50;;;;;;;8.63;4.45;;;0.40;99.90;;;;;;5086950;28;20035;-71
2023/12/05 04:19:16;;;;;;;7.25;4.50;;;0.30;99.90;;;;;;5084125;28;20027;-71
2023/12/05 04:21:44;;;;;;;7.78;4.28;;;0.30;99.90;;;;;;5086192;28;20035;-70
2023/12/05 04:24:10;;;;;;;7.70;4.35;;;0.40;99.90;;;;;;5087422;28;20074;-71
2023/12/05 04:26:35;;;;;;;8.40;4.43;;;0.40;99.90;;;;;;5087796;28;20054;-71
2023/12/05 04:29:01;;;;;;;8.13;4.25;;;0.50;99.90;;;;;;5090831;28;20038;-71
2023/12/05 04:31:27;;;;;;;10.20;4.55;;;0.50;99.90;;;;;;5087578;28;20031;-71
2023/12/05 04:33:53;;;;;;;7.40;5.07;;;0.50;99.90;;;;;;5089367;28;21186;-71
2023/12/05 04:36:18;;;;;;;7.95;4.18;;;0.40;99.90;;;;;;5089289;28;20058;-71
2023/12/05 04:38:44;;;;;;;7.95;5.03;;;0.50;99.90;;;;;;5089239;28;20382;-70
2023/12/05 04:41:10;;;;;;;10.07;5.18;;;0.40;99.90;;;;;;5088128;28;20062;-71
2023/12/05 04:43:36;;;;;;;10.45;4.80;;;0.40;99.90;;;;;;5089415;28;20508;-71
2023/12/05 04:46:01;;;;;;;9.65;4.90;;;0.30;99.90;;;;;;5090813;28;20020;-71
2023/12/05 04:48:27;;;;;;;7.55;4.88;;;0.40;99.90;;;;;;5088142;28;20028;-71
2023/12/05 04:50:53;;;;;;;7.38;4.40;;;0.40;99.90;;;;;;5088084;28;20042;-71
2023/12/05 04:53:19;;;;;;;8.63;4.68;;;0.40;99.90;;;;;;5090167;28;20696;-71
2023/12/05 04:55:44;;;;;;;9.48;4.90;;;0.40;99.90;;;;;;5089808;28;20736;-71
2023/12/05 04:58:10;;;;;;;9.52;4.97;;;0.40;99.90;;;;;;5085158;28;20035;-71
2023/12/05 05:00:36;;;;;;;9.05;5.40;;;0.50;99.90;;;;;;5086727;28;20099;-72
2023/12/05 05:03:02;;;;;;;10.27;6.05;;;0.40;99.90;;;;;;5087081;28;20128;-72
2023/12/05 05:05:28;;;;;;;8.45;4.97;;;0.50;99.90;;;;;;5086294;28;20538;-72
2023/12/05 05:07:54;;;;;;;8.05;4.82;;;0.50;99.90;;;;;;5086885;28;20046;-72
2023/12/05 05:10:20;;;;;;;9.32;5.07;;;0.50;99.90;;;;;;5085226;28;20035;-72
2023/12/05 05:12:45;;;;;;;8.70;4.55;;;0.40;99.90;;;;;;5085566;28;20027;-72
2023/12/05 05:15:11;;;;;;;9.60;5.35;;;0.40;99.90;;;;;;5087523;28;20385;-72
2023/12/05 05:17:37;;;;;;;7.72;5.18;;;0.40;99.90;;;;;;5085817;28;20054;-72
2023/12/05 05:20:03;;;;;;;8.45;5.05;;;0.60;99.90;;;;;;5085672;28;20951;-72
2023/12/05 05:22:29;;;;;;;9.35;5.10;;;0.60;99.90;;;;;;5087440;28;21304;-72
2023/12/05 05:24:54;;;;;;;9.95;5.03;;;0.70;99.90;;;;;;5086560;28;20039;-72
2023/12/05 05:27:20;;;;;;;9.05;5.15;;;0.60;99.90;;;;;;5085863;28;20040;-72
2023/12/05 05:29:46;;;;;;;9.32;4.95;;;0.70;99.90;;;;;;5087856;28;20038;-72
2023/12/05 05:32:11;;;;;;;9.77;5.15;;;0.70;99.90;;;;;;5086236;28;20038;-72
2023/12/05 05:34:37;;;;;;;9.55;5.72;;;0.80;99.90;;;;;;5086124;28;20051;-72
2023/12/05 05:37:03;;;;;;;8.10;4.93;;;0.60;99.90;;;;;;5086523;28;20035;-72
2023/12/05 05:39:29;;;;;;;8.10;5.30;;;0.60;99.90;;;;;;5082572;28;20036;-73
2023/12/05 05:41:54;;;;;;;9.43;5.60;;;0.70;99.90;;;;;;5083413;28;20186;-73
2023/12/05 05:44:20;;;;;;;8.35;4.97;;;0.60;99.90;;;;;;5085874;28;20055;-73
2023/12/05 05:46:46;;;;;;;10.13;5.30;;;0.60;99.90;;;;;;5086072;28;20042;-73
2023/12/05 05:49:11;;;;;;;9.55;4.97;;;0.60;99.90;;;;;;5084400;28;20032;-73
2023/12/05 05:51:37;;;;;;;9.98;5.53;;;0.60;99.90;;;;;;5083975;28;20055;-73
2023/12/05 05:54:03;;;;;;;9.93;5.47;;;0.50;99.90;;;;;;5084422;28;20028;-72
2023/12/05 05:56:29;;;;;;;9.38;6.05;;;0.40;99.90;;;;;;5088300;28;20058;-73
2023/12/05 05:58:54;;;;;;;13.23;5.47;;;0.40;99.90;;;;;;5090393;28;20668;-73
2023/12/05 06:01:20;;;;;;;9.35;5.78;;;0.40;99.90;;;;;;5092612;28;20318;-72
2023/12/05 06:03:46;;;;;;;8.25;5.28;;;0.40;99.90;;;;;;5094003;28;20046;-72
2023/12/05 06:06:11;;;;;;;8.75;5.72;;;0.40;99.90;;;;;;5091434;28;20552;-73
2023/12/05 06:08:37;;;;;;;11.65;5.47;;;0.40;99.90;;;;;;5091713;28;20028;-73
2023/12/05 06:11:03;;;;;;;9.68;5.88;;;0.30;99.90;;;;;;5088148;28;20046;-72
2023/12/05 06:13:29;;;;;;;11.77;6.63;;;0.40;99.90;;;;;;5089989;28;20031;-73
2023/12/05 06:15:54;;;;;;;11.93;5.95;;;0.40;99.90;;;;;;5091193;28;20593;-72
2023/12/05 06:18:20;;;;;;;7.80;5.03;;;0.60;99.90;;;;;;5088595;28;20770;-73
2023/12/05 06:20:46;;;;;;;7.88;4.82;;;0.60;99.90;;;;;;5087779;28;20038;-73
2023/12/05 06:23:12;;;;;;;8.93;5.32;;;0.60;99.90;;;;;;5087232;28;20027;-73
2023/12/05 06:25:39;;;;;;;8.07;4.82;;;0.60;99.90;;;;;;5090769;28;20044;-75
2023/12/05 06:28:05;;;;;;;7.95;4.95;;;0.70;99.90;;;;;;5090398;28;20064;-74
2023/12/05 06:30:30;;;;;;;8.27;5.05;;;0.70;99.90;;;;;;5089151;28;20077;-73
2023/12/05 06:32:56;;;;;;;7.82;5.15;;;0.80;99.90;;;;;;5086512;28;20040;-74
2023/12/05 06:35:22;;;;;;;14.27;6.07;;;1.00;99.90;;;;;;5089738;28;20051;-73
2023/12/05 06:37:48;;;;;;;8.23;4.28;;;1.00;99.90;;;;;;5089558;28;20623;-73
2023/12/05 06:40:13;;;;;;;9.30;5.30;;;0.90;99.90;;;;;;5089650;28;20142;-74
2023/12/05 06:42:40;;;;;;;10.52;5.13;;;0.90;99.90;;;;;;5090681;28;20039;-73
2023/12/05 06:45:06;;;;;;;11.13;5.28;;;0.80;99.90;;;;;;5089319;28;20124;-73
2023/12/05 06:47:33;;;;;;;9.88;6.00;;;0.80;99.90;;;;;;5089091;28;20027;-73
2023/12/05 06:50:01;;;;;;;21.98;11.10;;;0.90;99.90;;;;;;5090982;28;22117;-73
2023/12/05 06:52:28;;;;;;;19.13;9.82;;;0.90;99.90;;;;;;5089965;28;20392;-73
2023/12/05 06:54:53;;;;;;;20.92;10.65;;;0.90;99.90;;;;;;5089330;28;20040;-73
2023/12/05 06:57:19;;;;;;;12.90;7.07;;;0.90;99.90;;;;;;5091263;28;20092;-74
2023/12/05 06:59:45;;;;;;;13.73;8.10;;;0.90;99.90;;;;;;5089537;28;20035;-74
2023/12/05 07:02:10;;;;;;;10.95;6.80;;;0.90;99.90;;;;;;5089071;28;20027;-73
2023/12/05 07:04:37;;;;;;;9.88;5.90;;;0.80;99.90;;;;;;5091076;28;20047;-74
2023/12/05 07:07:03;;;;;;;11.23;7.05;;;0.80;99.90;;;;;;5088794;28;20031;-73
2023/12/05 07:09:30;;;;;;;11.38;6.28;;;0.70;99.90;;;;;;5089205;28;20039;-73
2023/12/05 07:11:55;;;;;;;9.90;5.90;;;0.80;99.90;;;;;;5091678;28;20118;-73
2023/12/05 07:14:21;;;;;;;9.10;5.60;;;0.80;99.90;;;;;;5089943;28;20042;-73
2023/12/05 07:16:47;;;;;;;7.30;5.00;;;0.90;99.90;;;;;;5090029;28;20040;-72
2023/12/05 07:19:12;;;;;;;9.05;5.72;;;0.90;99.90;;;;;;5090510;28;20110;-73
2023/12/05 07:21:38;;;;;;;8.23;5.07;;;1.00;99.90;;;;;;5087942;28;20032;-73
2023/12/05 07:24:04;;;;;;;10.07;4.97;;;0.80;99.90;;;;;;5087613;28;20109;-73
2023/12/05 07:26:30;;;;;;;8.82;6.07;;;0.80;99.90;;;;;;5091254;28;20028;-73
2023/12/05 07:28:55;;;;;;;10.02;5.20;;;0.80;99.90;;;;;;5088683;28;20043;-73
2023/12/05 07:31:21;;;;;;;8.65;4.32;;;0.80;99.90;;;;;;5087412;28;20027;-72
2023/12/05 07:33:47;;;;;;;10.13;5.20;;;0.90;99.90;;;;;;5088340;28;20596;-73
2023/12/05 07:36:13;;;;;;;9.73;5.65;;;1.00;99.90;;;;;;5087328;28;20035;-73
2023/12/05 07:38:39;;;;;;;7.47;4.35;;;1.00;99.90;;;;;;5087526;28;20046;-72
2023/12/05 07:41:04;;;;;;;8.20;4.93;;;1.00;99.90;;;;;;5090064;28;20027;-73
2023/12/05 07:43:30;;;;;;;9.90;6.20;;;1.00;99.90;;;;;;5089353;28;20039;-73
2023/12/05 07:45:56;;;;;;;10.02;5.60;;;1.00;99.90;;;;;;5088742;28;20059;-73
2023/12/05 07:48:22;;;;;;;10.85;5.90;;;1.10;99.90;;;;;;5089421;28;20172;-73
2023/12/05 07:50:47;;;;;;;12.40;5.70;;;1.20;99.90;;;;;;5087639;28;20031;-72
2023/12/05 07:53:13;;;;;;;10.93;5.75;;;1.30;99.90;;;;;;5078287;28;20042;-72
2023/12/05 07:55:38;;;;;;;8.65;5.20;;;1.30;99.90;;;;;;5088249;28;20034;-73
2023/12/05 07:58:04;;;;;;;9.48;5.38;;;1.30;99.90;;;;;;5088023;28;20031;-74
2023/12/05 08:00:30;;;;;;;10.55;5.75;;;1.20;99.90;;;;;;5087665;28;20602;-72
2023/12/05 08:02:56;;;;;;;12.38;5.40;;;1.30;99.90;;;;;;5089697;28;20165;-74
2023/12/05 08:05:22;;;;;;;9.57;4.45;;;1.30;99.90;;;;;;5087938;28;20050;-72
2023/12/05 08:07:47;;;;;;;8.45;5.15;;;1.40;99.90;;;;;;5087728;28;20023;-73
2023/12/05 08:10:13;;;;;;;8.35;5.20;;;1.40;99.90;;;;;;5089265;28;20438;-73
2023/12/05 08:12:38;;;;;;;25.02;6.85;;;1.30;99.90;;;;;;5087932;28;20536;-74
2023/12/05 08:15:05;;;;;;;14.70;6.25;;;1.50;99.90;;;;;;5087807;28;20100;-73
2023/12/05 08:17:30;;;;;;;9.35;6.03;;;1.50;99.90;;;;;;5089172;28;20114;-73
2023/12/05 08:19:56;;;;;;;11.50;6.45;;;1.40;99.90;;;;;;5086721;28;20035;-73
2023/12/05 08:22:22;;;;;;;9.52;5.20;;;1.50;99.90;;;;;;5087948;28;20067;-73
2023/12/05 08:24:50;;;;;;;9.63;4.60;;;1.40;99.90;;;;;;5089010;28;20123;-73
2023/12/05 08:27:16;;;;;;;10.32;5.07;;;1.50;99.90;;;;;;5086178;28;20667;-74
2023/12/05 08:29:41;;;;;;;9.20;5.30;;;1.60;99.90;;;;;;5087387;28;20118;-72
2023/12/05 08:32:08;;;;;;;8.60;5.60;;;1.50;99.90;;;;;;5088610;28;20100;-71
2023/12/05 08:34:34;;;;;;;10.90;6.65;;;1.50;99.90;;;;;;5087108;28;20047;-71
2023/12/05 08:37:00;;;;;;;10.05;6.47;;;1.40;99.90;;;;;;5087230;28;20393;-72
2023/12/05 08:39:26;;;;;;;10.55;6.43;;;1.50;99.90;;;;;;5089312;28;20035;-72
2023/12/05 08:41:52;;;;;;;10.75;6.28;;;1.60;99.90;;;;;;5087731;28;20024;-73
2023/12/05 08:44:19;;;;;;;10.02;6.50;;;1.50;99.90;;;;;;5086901;28;20397;-72
2023/12/05 08:46:46;;;;;;;11.88;6.55;;;1.60;99.90;;;;;;5089244;28;20141;-71
2023/12/05 08:49:12;;;;;;;10.52;6.32;;;1.80;99.90;;;;;;5087407;28;20436;-71
2023/12/05 08:51:38;;;;;;;10.60;6.45;;;1.70;99.90;;;;;;5086724;28;20031;-73
2023/12/05 08:54:04;;;;;;;11.02;6.85;;;1.80;99.90;;;;;;5088347;28;20034;-73
2023/12/05 08:56:30;;;;;;;9.77;5.40;;;2.20;99.90;;;;;;5086393;28;20062;-72
2023/12/05 08:58:55;;;;;;;9.77;5.80;;;2.10;99.90;;;;;;5087733;28;20473;-73
2023/12/05 09:01:23;;;;;;;8.48;5.30;;;2.00;99.90;;;;;;5088334;28;20373;-73
2023/12/05 09:03:49;;;;;;;8.88;5.40;;;2.00;99.90;;;;;;5087723;28;20036;-73
2023/12/05 09:06:15;;;;;;;7.93;4.80;;;2.10;99.90;;;;;;5087745;28;20031;-73
2023/12/05 09:08:41;;;;;;;9.43;5.60;;;2.10;99.90;;;;;;5088191;28;20412;-74
2023/12/05 09:11:07;;;;;;;10.75;6.13;;;2.10;99.90;;;;;;5086696;28;20072;-73
2023/12/05 09:13:33;;;;;;;11.07;6.30;;;2.10;99.90;;;;;;5086425;28;20036;-74
2023/12/05 09:15:59;;;;;;;10.00;7.15;;;2.10;99.90;;;;;;5087803;28;20070;-73
2023/12/05 09:18:25;;;;;;;9.10;5.97;;;2.20;99.90;;;;;;5086430;28;20114;-72
2023/12/05 09:20:50;;;;;;;10.45;6.35;;;2.50;99.90;;;;;;5086218;28;20035;-74
2023/12/05 09:23:16;;;;;;;9.95;6.18;;;2.40;99.90;;;;;;5087742;28;20697;-73
2023/12/05 09:25:42;;;;;;;11.40;7.03;;;3.10;99.90;;;;;;5086094;28;20096;-73
2023/12/05 09:28:08;;;;;;;10.23;6.88;;;3.80;99.90;;;;;;5087705;28;20036;-74
2023/12/05 09:30:34;;;;;;;12.70;7.10;;;3.20;99.90;;;;;;5087761;28;20644;-73
2023/12/05 09:32:59;;;;;;;11.75;7.20;;;2.80;99.90;;;;;;5086280;28;20111;-72
2023/12/05 09:35:25;;;;;;;9.60;5.97;;;2.70;99.90;;;;;;5086529;28;20799;-73
2023/12/05 09:37:51;;;;;;;10.63;7.05;;;2.70;99.90;;;;;;5087508;28;20523;-73
2023/12/05 09:40:17;;;;;;;10.00;5.97;;;2.60;99.90;;;;;;5085747;28;20049;-73
2023/12/05 09:42:47;;;;;;;9.60;6.32;;;2.60;99.90;;;;;;5086080;28;20569;-73
2023/12/05 09:45:15;;;;;;;9.10;6.15;;;2.60;99.90;;;;;;5087748;28;20618;-73
2023/12/05 09:47:43;;;;;;;9.45;5.75;;;2.50;99.90;;;;;;5087239;28;20032;-73
2023/12/05 09:50:09;;;;;;;13.80;7.53;;;2.50;99.90;;;;;;5086408;28;20039;-73
2023/12/05 09:52:35;;;;;;;10.80;6.80;;;2.60;99.90;;;;;;5088137;28;20486;-73
2023/12/05 09:55:02;;;;;;;12.40;7.00;;;2.60;99.90;;;;;;5086740;28;20116;-72
2023/12/05 09:57:29;;;;;;;10.02;6.50;;;2.40;99.90;;;;;;5086819;28;20039;-73
2023/12/05 09:59:54;;;;;;;11.48;6.40;;;2.50;99.90;;;;;;5087599;28;20777;-73
2023/12/05 10:02:23;;;;;;;8.18;6.28;;;2.50;99.90;;;;;;5086932;28;20031;-72
2023/12/05 10:04:55;;;;;;;10.80;6.20;;;2.50;99.90;;;;;;5085956;28;20086;-73
2023/12/05 10:07:22;;;;;;;10.70;6.20;;;2.50;99.90;;;;;;5085813;28;20043;-73
2023/12/05 10:09:50;;;;;;;9.02;5.85;;;2.50;99.90;;;;;;5088717;28;20505;-73
2023/12/05 10:12:16;;;;;;;9.85;5.68;;;2.50;99.90;;;;;;5086772;28;20042;-73
2023/12/05 10:14:41;;;;;;;10.57;5.72;;;2.50;99.90;;;;;;5087653;28;20036;-73
2023/12/05 10:17:08;;;;;;;27.00;15.80;;;2.60;99.90;;;;;;5085772;28;20039;-73
2023/12/05 10:19:34;;;;;;;22.95;13.70;;;2.60;99.90;;;;;;5085630;28;20477;-73
2023/12/05 10:22:02;;;;;;;19.85;11.02;;;2.60;99.90;;;;;;5086532;28;20035;-73
2023/12/05 10:24:51;;;;;;;13.68;8.80;;;2.60;99.90;;;;;;5087964;28;20070;-73
2023/12/05 10:27:16;;;;;;;21.85;13.80;;;2.60;99.90;;;;;;5087249;28;20035;-73
2023/12/05 10:29:43;;;;;;;15.63;10.48;;;2.70;99.90;;;;;;5086656;28;20502;-73
2023/12/05 10:32:10;;;;;;;18.88;11.68;;;2.60;99.90;;;;;;5086430;28;20030;-73
2023/12/05 10:34:51;;;;;;;16.00;10.05;;;2.70;99.90;;;;;;5087526;28;20058;-73
2023/12/05 10:37:21;;;;;;;13.07;7.80;;;2.50;99.90;;;;;;5087442;28;20039;-73
2023/12/05 10:39:52;;;;;;;16.63;11.55;;;2.60;99.90;;;;;;5085752;28;20036;-73
2023/12/05 10:42:19;;;;;;;14.88;10.38;;;2.60;99.90;;;;;;5087337;28;20058;-73
2023/12/05 10:44:45;;;;;;;10.30;8.32;;;2.50;99.90;;;;;;5090720;28;20071;-73
2023/12/05 10:47:12;;;;;;;12.50;6.75;;;2.50;99.90;;;;;;5090812;28;20033;-73
2023/12/05 10:49:41;;;;;;;10.38;6.47;;;2.50;99.90;;;;;;5089929;28;20067;-73
2023/12/05 10:52:08;;;;;;;12.73;7.20;;;2.60;99.90;;;;;;5089418;28;20092;-73
2023/12/05 10:54:34;;;;;;;12.45;6.90;;;2.60;99.90;;;;;;5091160;28;20046;-73
2023/12/05 10:57:00;;;;;;;12.10;7.20;;;2.70;99.90;;;;;;5089613;28;20027;-74
2023/12/05 10:59:27;;;;;;;11.00;7.78;;;2.70;99.90;;;;;;5089375;28;20102;-73
2023/12/05 11:01:56;;;;;;;12.95;7.28;;;2.70;99.90;;;;;;5091472;28;20069;-73
2023/12/05 11:04:25;;;;;;;10.00;7.65;;;2.70;99.90;;;;;;5094272;28;20385;-73
2023/12/05 11:06:54;;;;;;;13.18;8.38;;;2.80;99.90;;;;;;5094936;28;21229;-73
2023/12/05 11:09:23;;;;;;;11.07;8.73;;;2.70;99.90;;;;;;5095563;28;20108;-73
2023/12/05 11:11:52;;;;;;;14.07;10.50;;;2.80;99.90;;;;;;5098093;28;20032;-73
2023/12/05 11:14:21;;;;;;;15.75;9.35;;;2.80;99.90;;;;;;5096614;28;20496;-73
2023/12/05 11:16:50;;;;;;;10.57;8.18;;;2.80;99.90;;;;;;5094441;28;20044;-73
2023/12/05 11:19:37;;;;;;;12.88;8.10;;;2.70;99.90;;;;;;5094849;28;20067;-73
2023/12/05 11:22:21;;;;;;;11.20;7.60;;;2.70;99.90;;;;;;5094531;28;20855;-73
2023/12/05 11:25:11;;;;;;;14.55;8.10;;;2.50;99.90;;;;;;5094542;28;20346;-73
2023/12/05 11:27:46;;;;;;;10.73;7.07;;;2.50;99.90;;;;;;5094467;28;20027;-73
2023/12/05 11:30:29;;;;;;;10.38;6.78;;;2.40;99.90;;;;;;5094947;28;20032;-73
2023/12/05 11:33:04;;;;;;;14.13;7.75;;;2.50;99.90;;;;;;5095291;28;20031;-73
2023/12/05 11:35:48;;;;;;;11.73;6.35;;;2.50;99.90;;;;;;5094588;28;20134;-73
2023/12/05 11:38:19;;;;;;;12.73;6.65;;;2.70;99.90;;;;;;5094609;28;20028;-73
2023/12/05 11:41:12;;;;;;;11.70;7.18;;;2.70;99.90;;;;;;5097630;28;20081;-73
2023/12/05 11:43:38;;;;;;;13.35;7.68;;;2.80;99.90;;;;;;5097755;28;20022;-73
2023/12/05 11:46:04;;;;;;;12.15;7.32;;;2.70;99.90;;;;;;5097543;28;20039;-73
2023/12/05 11:48:33;;;;;;;11.93;7.75;;;2.80;99.90;;;;;;5096735;28;20023;-73
2023/12/05 11:51:00;;;;;;;14.55;7.65;;;2.90;99.90;;;;;;5097484;28;20106;-73
2023/12/05 11:53:25;;;;;;;16.33;10.68;;;3.00;99.90;;;;;;5096822;28;20035;-73
2023/12/05 11:55:51;;;;;;;14.55;8.52;;;3.00;99.90;;;;;;5096924;28;20027;-73
2023/12/05 11:58:34;;;;;;;14.75;7.60;;;3.10;99.90;;;;;;5096693;28;20028;-73
2023/12/05 12:01:09;;;;;;;10.25;7.30;;;3.00;99.90;;;;;;5096394;28;20089;-73
2023/12/05 12:03:53;;;;;;;11.93;7.65;;;2.90;99.90;;;;;;5093673;28;20492;-74
2023/12/05 12:06:21;;;;;;;13.13;6.85;;;2.80;99.90;;;;;;5091500;28;20508;-73
2023/12/05 12:08:48;;;;;;;11.57;7.60;;;2.90;99.90;;;;;;5091604;28;20085;-73
2023/12/05 12:11:15;;;;;;;13.07;7.22;;;3.00;99.90;;;;;;5091943;28;20695;-73
2023/12/05 12:13:40;;;;;;;10.77;7.53;;;3.10;99.90;;;;;;5091873;28;20062;-73
2023/12/05 12:16:06;;;;;;;12.30;7.35;;;3.10;99.90;;;;;;5091206;28;20493;-73
2023/12/05 12:18:32;;;;;;;12.25;6.85;;;3.10;99.90;;;;;;5092394;28;20019;-73
2023/12/05 12:20:59;;;;;;;11.88;7.47;;;3.00;99.90;;;;;;5091468;28;20740;-73
2023/12/05 12:23:25;;;;;;;10.82;7.47;;;3.00;99.90;;;;;;5089470;28;20171;-73
2023/12/05 12:25:54;;;;;;;13.10;7.43;;;3.00;99.90;;;;;;5087474;28;20110;-73
2023/12/05 12:28:28;;;;;;;11.70;6.72;;;3.10;99.90;;;;;;5087526;28;20687;-73
2023/12/05 12:30:58;;;;;;;10.40;7.15;;;3.20;99.90;;;;;;5088034;28;20049;-73
2023/12/05 12:33:46;;;;;;;9.50;5.95;;;3.10;99.90;;;;;;5089354;28;20482;-73
2023/12/05 12:36:12;;;;;;;12.00;6.47;;;3.20;99.90;;;;;;5088956;28;20046;-73
2023/12/05 12:38:40;;;;;;;10.10;6.68;;;3.20;99.90;;;;;;5090682;28;20035;-73
2023/12/05 12:41:05;;;;;;;11.23;7.47;;;3.20;99.90;;;;;;5090077;28;20036;-73
2023/12/05 12:43:34;;;;;;;9.25;6.50;;;3.20;99.90;;;;;;5090823;28;20047;-73
2023/12/05 12:46:00;;;;;;;12.70;7.15;;;3.10;99.90;;;;;;5091511;28;20120;-73
2023/12/05 12:48:26;;;;;;;13.20;7.93;;;3.10;99.90;;;;;;5089497;28;20076;-73
2023/12/05 12:50:53;;;;;;;10.90;6.93;;;3.10;99.90;;;;;;5087487;28;20039;-73
2023/12/05 12:53:19;;;;;;;13.88;8.00;;;3.00;99.90;;;;;;5088440;28;20054;-73